sensor_id;sensor_type;location;lat;lon;timestamp;P1;durP1;ratioP1;P2;durP2;ratioP2
58928;SDS011;44713;53.378;10.022;2023-06-14T00:00:30;2.60;;;2.22;;
58928;SDS011;44713;53.378;10.022;2023-06-14T00:02:56;4.25;;;1.98;;
58928;SDS011;44713;53.378;10.022;2023-06-14T00:05:22;4.50;;;2.10;;
58928;SDS011;44713;53.378;10.022;2023-06-14T00:07:48;3.40;;;2.20;;
58928;SDS011;44713;53.378;10.022;2023-06-14T00:10:14;5.15;;;2.10;;
58928;SDS011;44713;53.378;10.022;2023-06-14T00:12:40;3.67;;;2.08;;
58928;SDS011;44713;53.378;10.022;2023-06-14T00:15:06;2.58;;;2.00;;
58928;SDS011;44713;53.378;10.022;2023-06-14T00:17:34;4.10;;;2.05;;
58928;SDS011;44713;53.378;10.022;2023-06-14T00:20:02;4.25;;;2.05;;
58928;SDS011;44713;53.378;10.022;2023-06-14T00:22:30;2.20;;;1.75;;
58928;SDS011;44713;53.378;10.022;2023-06-14T00:24:56;3.38;;;2.03;;
58928;SDS011;44713;53.378;10.022;2023-06-14T00:27:21;3.65;;;2.17;;
58928;SDS011;44713;53.378;10.022;2023-06-14T00:29:46;7.05;;;2.50;;
58928;SDS011;44713;53.378;10.022;2023-06-14T00:32:12;2.35;;;2.00;;
58928;SDS011;44713;53.378;10.022;2023-06-14T00:34:37;4.22;;;2.40;;
58928;SDS011;44713;53.378;10.022;2023-06-14T00:37:02;6.05;;;2.50;;
58928;SDS011;44713;53.378;10.022;2023-06-14T00:39:28;7.20;;;2.53;;
58928;SDS011;44713;53.378;10.022;2023-06-14T00:41:54;4.50;;;1.92;;
58928;SDS011;44713;53.378;10.022;2023-06-14T00:44:20;3.70;;;2.10;;
58928;SDS011;44713;53.378;10.022;2023-06-14T00:46:46;5.43;;;1.70;;
58928;SDS011;44713;53.378;10.022;2023-06-14T00:49:14;2.85;;;1.80;;
58928;SDS011;44713;53.378;10.022;2023-06-14T00:51:42;2.47;;;1.80;;
58928;SDS011;44713;53.378;10.022;2023-06-14T00:54:07;4.13;;;2.15;;
58928;SDS011;44713;53.378;10.022;2023-06-14T00:56:35;2.13;;;1.88;;
58928;SDS011;44713;53.378;10.022;2023-06-14T00:59:03;5.28;;;2.03;;
58928;SDS011;44713;53.378;10.022;2023-06-14T01:01:30;2.47;;;1.98;;
58928;SDS011;44713;53.378;10.022;2023-06-14T01:03:59;4.35;;;2.10;;
58928;SDS011;44713;53.378;10.022;2023-06-14T01:09:30;3.25;;;2.20;;
58928;SDS011;44713;53.378;10.022;2023-06-14T01:14:49;3.13;;;2.00;;
58928;SDS011;44713;53.378;10.022;2023-06-14T01:17:18;4.22;;;2.00;;
58928;SDS011;44713;53.378;10.022;2023-06-14T01:19:47;4.25;;;1.98;;
58928;SDS011;44713;53.378;10.022;2023-06-14T01:22:13;2.55;;;1.80;;
58928;SDS011;44713;53.378;10.022;2023-06-14T01:24:39;2.28;;;1.73;;
58928;SDS011;44713;53.378;10.022;2023-06-14T01:27:10;2.20;;;1.88;;
58928;SDS011;44713;53.378;10.022;2023-06-14T01:29:37;4.53;;;2.30;;
58928;SDS011;44713;53.378;10.022;2023-06-14T01:32:03;4.78;;;2.20;;
58928;SDS011;44713;53.378;10.022;2023-06-14T01:34:30;3.78;;;1.98;;
58928;SDS011;44713;53.378;10.022;2023-06-14T01:36:56;3.13;;;2.20;;
58928;SDS011;44713;53.378;10.022;2023-06-14T01:39:22;2.80;;;2.50;;
58928;SDS011;44713;53.378;10.022;2023-06-14T01:41:48;4.45;;;2.22;;
58928;SDS011;44713;53.378;10.022;2023-06-14T01:44:16;3.70;;;2.08;;
58928;SDS011;44713;53.378;10.022;2023-06-14T01:46:43;4.90;;;2.55;;
58928;SDS011;44713;53.378;10.022;2023-06-14T01:49:10;1.90;;;1.70;;
58928;SDS011;44713;53.378;10.022;2023-06-14T01:51:35;6.57;;;2.20;;
58928;SDS011;44713;53.378;10.022;2023-06-14T01:54:01;3.55;;;2.10;;
58928;SDS011;44713;53.378;10.022;2023-06-14T01:56:26;5.10;;;2.58;;
58928;SDS011;44713;53.378;10.022;2023-06-14T01:58:52;3.50;;;2.42;;
58928;SDS011;44713;53.378;10.022;2023-06-14T02:01:19;3.97;;;2.20;;
58928;SDS011;44713;53.378;10.022;2023-06-14T02:03:46;4.72;;;1.95;;
58928;SDS011;44713;53.378;10.022;2023-06-14T02:06:14;2.22;;;1.75;;
58928;SDS011;44713;53.378;10.022;2023-06-14T02:08:41;5.03;;;2.58;;
58928;SDS011;44713;53.378;10.022;2023-06-14T02:11:07;3.47;;;1.90;;
58928;SDS011;44713;53.378;10.022;2023-06-14T02:13:34;5.88;;;3.22;;
58928;SDS011;44713;53.378;10.022;2023-06-14T02:16:00;4.38;;;2.55;;
58928;SDS011;44713;53.378;10.022;2023-06-14T02:18:27;5.07;;;2.88;;
58928;SDS011;44713;53.378;10.022;2023-06-14T02:20:52;6.53;;;2.67;;
58928;SDS011;44713;53.378;10.022;2023-06-14T02:23:18;6.88;;;2.60;;
58928;SDS011;44713;53.378;10.022;2023-06-14T02:25:43;4.65;;;2.63;;
58928;SDS011;44713;53.378;10.022;2023-06-14T02:28:10;6.18;;;3.30;;
58928;SDS011;44713;53.378;10.022;2023-06-14T02:30:37;5.60;;;2.92;;
58928;SDS011;44713;53.378;10.022;2023-06-14T02:33:02;6.38;;;3.10;;
58928;SDS011;44713;53.378;10.022;2023-06-14T02:35:31;4.35;;;2.70;;
58928;SDS011;44713;53.378;10.022;2023-06-14T02:37:56;3.55;;;2.30;;
58928;SDS011;44713;53.378;10.022;2023-06-14T02:40:22;5.43;;;2.90;;
58928;SDS011;44713;53.378;10.022;2023-06-14T02:42:48;3.47;;;2.13;;
58928;SDS011;44713;53.378;10.022;2023-06-14T02:45:14;4.57;;;2.42;;
58928;SDS011;44713;53.378;10.022;2023-06-14T02:47:40;4.07;;;2.55;;
58928;SDS011;44713;53.378;10.022;2023-06-14T02:50:05;4.22;;;2.85;;
58928;SDS011;44713;53.378;10.022;2023-06-14T02:52:31;4.07;;;2.67;;
58928;SDS011;44713;53.378;10.022;2023-06-14T02:54:58;3.97;;;2.60;;
58928;SDS011;44713;53.378;10.022;2023-06-14T02:57:24;6.03;;;2.17;;
58928;SDS011;44713;53.378;10.022;2023-06-14T02:59:50;5.63;;;2.80;;
58928;SDS011;44713;53.378;10.022;2023-06-14T03:02:15;3.75;;;2.67;;
58928;SDS011;44713;53.378;10.022;2023-06-14T03:04:42;5.25;;;3.13;;
58928;SDS011;44713;53.378;10.022;2023-06-14T03:07:13;2.65;;;2.28;;
58928;SDS011;44713;53.378;10.022;2023-06-14T03:09:44;5.85;;;2.80;;
58928;SDS011;44713;53.378;10.022;2023-06-14T03:12:11;7.88;;;2.78;;
58928;SDS011;44713;53.378;10.022;2023-06-14T03:14:37;3.67;;;2.38;;
58928;SDS011;44713;53.378;10.022;2023-06-14T03:17:03;3.25;;;2.78;;
58928;SDS011;44713;53.378;10.022;2023-06-14T03:19:31;8.00;;;3.88;;
58928;SDS011;44713;53.378;10.022;2023-06-14T03:21:56;5.68;;;3.17;;
58928;SDS011;44713;53.378;10.022;2023-06-14T03:24:24;5.65;;;3.15;;
58928;SDS011;44713;53.378;10.022;2023-06-14T03:26:50;5.53;;;3.30;;
58928;SDS011;44713;53.378;10.022;2023-06-14T03:29:15;7.47;;;2.95;;
58928;SDS011;44713;53.378;10.022;2023-06-14T03:31:56;6.60;;;3.55;;
58928;SDS011;44713;53.378;10.022;2023-06-14T03:34:24;6.07;;;3.17;;
58928;SDS011;44713;53.378;10.022;2023-06-14T03:36:50;6.50;;;3.45;;
58928;SDS011;44713;53.378;10.022;2023-06-14T03:39:15;7.72;;;3.40;;
58928;SDS011;44713;53.378;10.022;2023-06-14T03:41:41;8.63;;;3.13;;
58928;SDS011;44713;53.378;10.022;2023-06-14T03:44:07;4.22;;;3.30;;
58928;SDS011;44713;53.378;10.022;2023-06-14T03:46:32;4.13;;;3.08;;
58928;SDS011;44713;53.378;10.022;2023-06-14T03:48:58;4.95;;;2.58;;
58928;SDS011;44713;53.378;10.022;2023-06-14T03:51:23;4.70;;;3.10;;
58928;SDS011;44713;53.378;10.022;2023-06-14T03:53:51;7.88;;;2.88;;
58928;SDS011;44713;53.378;10.022;2023-06-14T03:56:17;3.97;;;2.80;;
58928;SDS011;44713;53.378;10.022;2023-06-14T03:58:42;9.82;;;3.13;;
58928;SDS011;44713;53.378;10.022;2023-06-14T04:01:08;6.45;;;3.10;;
58928;SDS011;44713;53.378;10.022;2023-06-14T04:03:33;4.15;;;2.85;;
58928;SDS011;44713;53.378;10.022;2023-06-14T04:06:00;5.57;;;2.75;;
58928;SDS011;44713;53.378;10.022;2023-06-14T04:08:26;7.18;;;3.30;;
58928;SDS011;44713;53.378;10.022;2023-06-14T04:10:51;6.45;;;3.70;;
58928;SDS011;44713;53.378;10.022;2023-06-14T04:13:16;4.97;;;2.97;;
58928;SDS011;44713;53.378;10.022;2023-06-14T04:15:42;8.07;;;3.25;;
58928;SDS011;44713;53.378;10.022;2023-06-14T04:18:13;4.25;;;2.97;;
58928;SDS011;44713;53.378;10.022;2023-06-14T04:20:39;6.25;;;2.97;;
58928;SDS011;44713;53.378;10.022;2023-06-14T04:23:13;6.72;;;2.88;;
58928;SDS011;44713;53.378;10.022;2023-06-14T04:25:44;6.63;;;3.20;;
58928;SDS011;44713;53.378;10.022;2023-06-14T04:28:15;3.85;;;2.90;;
58928;SDS011;44713;53.378;10.022;2023-06-14T04:30:45;9.70;;;3.20;;
58928;SDS011;44713;53.378;10.022;2023-06-14T04:33:13;5.68;;;3.38;;
58928;SDS011;44713;53.378;10.022;2023-06-14T04:35:38;7.45;;;3.63;;
58928;SDS011;44713;53.378;10.022;2023-06-14T04:38:06;10.63;;;3.85;;
58928;SDS011;44713;53.378;10.022;2023-06-14T04:40:35;5.65;;;3.25;;
58928;SDS011;44713;53.378;10.022;2023-06-14T04:43:08;5.57;;;3.60;;
58928;SDS011;44713;53.378;10.022;2023-06-14T04:45:37;8.30;;;3.63;;
58928;SDS011;44713;53.378;10.022;2023-06-14T04:48:03;8.35;;;3.90;;
58928;SDS011;44713;53.378;10.022;2023-06-14T04:50:28;5.65;;;3.40;;
58928;SDS011;44713;53.378;10.022;2023-06-14T04:52:55;6.93;;;3.88;;
58928;SDS011;44713;53.378;10.022;2023-06-14T04:55:20;10.20;;;3.80;;
58928;SDS011;44713;53.378;10.022;2023-06-14T04:57:46;6.68;;;3.08;;
58928;SDS011;44713;53.378;10.022;2023-06-14T05:00:12;5.97;;;3.33;;
58928;SDS011;44713;53.378;10.022;2023-06-14T05:02:38;9.15;;;3.60;;
58928;SDS011;44713;53.378;10.022;2023-06-14T05:05:05;8.98;;;3.50;;
58928;SDS011;44713;53.378;10.022;2023-06-14T05:07:32;5.30;;;3.50;;
58928;SDS011;44713;53.378;10.022;2023-06-14T05:09:58;7.18;;;3.42;;
58928;SDS011;44713;53.378;10.022;2023-06-14T05:12:24;9.50;;;3.75;;
58928;SDS011;44713;53.378;10.022;2023-06-14T05:14:50;9.70;;;4.10;;
58928;SDS011;44713;53.378;10.022;2023-06-14T05:17:18;9.35;;;4.05;;
58928;SDS011;44713;53.378;10.022;2023-06-14T05:19:45;9.60;;;3.92;;
58928;SDS011;44713;53.378;10.022;2023-06-14T05:22:11;10.75;;;3.38;;
58928;SDS011;44713;53.378;10.022;2023-06-14T05:24:36;8.65;;;3.33;;
58928;SDS011;44713;53.378;10.022;2023-06-14T05:27:02;5.93;;;3.22;;
58928;SDS011;44713;53.378;10.022;2023-06-14T05:29:28;7.32;;;4.00;;
58928;SDS011;44713;53.378;10.022;2023-06-14T05:31:53;5.18;;;3.60;;
58928;SDS011;44713;53.378;10.022;2023-06-14T05:34:18;6.25;;;3.70;;
58928;SDS011;44713;53.378;10.022;2023-06-14T05:36:44;8.77;;;3.67;;
58928;SDS011;44713;53.378;10.022;2023-06-14T05:39:09;6.85;;;3.65;;
58928;SDS011;44713;53.378;10.022;2023-06-14T05:41:35;6.75;;;3.30;;
58928;SDS011;44713;53.378;10.022;2023-06-14T05:44:00;7.07;;;4.10;;
58928;SDS011;44713;53.378;10.022;2023-06-14T05:46:26;7.85;;;3.70;;
58928;SDS011;44713;53.378;10.022;2023-06-14T05:48:52;8.48;;;3.80;;
58928;SDS011;44713;53.378;10.022;2023-06-14T05:51:17;8.18;;;3.25;;
58928;SDS011;44713;53.378;10.022;2023-06-14T05:53:46;8.48;;;3.60;;
58928;SDS011;44713;53.378;10.022;2023-06-14T05:56:12;6.63;;;3.30;;
58928;SDS011;44713;53.378;10.022;2023-06-14T05:58:38;9.02;;;3.55;;
58928;SDS011;44713;53.378;10.022;2023-06-14T06:01:04;7.75;;;3.30;;
58928;SDS011;44713;53.378;10.022;2023-06-14T06:03:29;10.57;;;3.50;;
58928;SDS011;44713;53.378;10.022;2023-06-14T06:05:55;6.47;;;3.50;;
58928;SDS011;44713;53.378;10.022;2023-06-14T06:08:20;5.13;;;3.33;;
58928;SDS011;44713;53.378;10.022;2023-06-14T06:10:46;8.30;;;3.53;;
58928;SDS011;44713;53.378;10.022;2023-06-14T06:13:11;8.88;;;3.53;;
58928;SDS011;44713;53.378;10.022;2023-06-14T06:15:37;14.45;;;3.97;;
58928;SDS011;44713;53.378;10.022;2023-06-14T06:18:02;6.47;;;3.58;;
58928;SDS011;44713;53.378;10.022;2023-06-14T06:20:28;6.97;;;3.20;;
58928;SDS011;44713;53.378;10.022;2023-06-14T06:22:56;5.15;;;3.35;;
58928;SDS011;44713;53.378;10.022;2023-06-14T06:25:23;7.90;;;3.80;;
58928;SDS011;44713;53.378;10.022;2023-06-14T06:27:50;4.72;;;3.20;;
58928;SDS011;44713;53.378;10.022;2023-06-14T06:30:16;6.60;;;3.58;;
58928;SDS011;44713;53.378;10.022;2023-06-14T06:32:42;4.75;;;3.33;;
58928;SDS011;44713;53.378;10.022;2023-06-14T06:35:08;6.93;;;3.95;;
58928;SDS011;44713;53.378;10.022;2023-06-14T06:37:35;7.05;;;3.40;;
58928;SDS011;44713;53.378;10.022;2023-06-14T06:40:01;6.40;;;3.33;;
58928;SDS011;44713;53.378;10.022;2023-06-14T06:42:28;5.28;;;3.20;;
58928;SDS011;44713;53.378;10.022;2023-06-14T06:44:57;7.55;;;3.30;;
58928;SDS011;44713;53.378;10.022;2023-06-14T06:47:23;4.70;;;3.50;;
58928;SDS011;44713;53.378;10.022;2023-06-14T06:49:48;6.93;;;3.15;;
58928;SDS011;44713;53.378;10.022;2023-06-14T06:52:14;4.80;;;3.17;;
58928;SDS011;44713;53.378;10.022;2023-06-14T06:54:39;7.00;;;3.35;;
58928;SDS011;44713;53.378;10.022;2023-06-14T06:57:05;5.88;;;3.47;;
58928;SDS011;44713;53.378;10.022;2023-06-14T06:59:31;6.25;;;3.28;;
58928;SDS011;44713;53.378;10.022;2023-06-14T07:01:56;6.95;;;3.15;;
58928;SDS011;44713;53.378;10.022;2023-06-14T07:04:21;7.60;;;2.95;;
58928;SDS011;44713;53.378;10.022;2023-06-14T07:06:47;3.03;;;2.50;;
58928;SDS011;44713;53.378;10.022;2023-06-14T07:09:12;4.30;;;2.67;;
58928;SDS011;44713;53.378;10.022;2023-06-14T07:11:42;4.00;;;3.25;;
58928;SDS011;44713;53.378;10.022;2023-06-14T07:14:08;6.38;;;2.67;;
58928;SDS011;44713;53.378;10.022;2023-06-14T07:16:33;6.38;;;3.03;;
58928;SDS011;44713;53.378;10.022;2023-06-14T07:18:59;8.07;;;2.90;;
58928;SDS011;44713;53.378;10.022;2023-06-14T07:21:25;3.65;;;2.55;;
58928;SDS011;44713;53.378;10.022;2023-06-14T07:23:51;4.35;;;2.70;;
58928;SDS011;44713;53.378;10.022;2023-06-14T07:26:20;3.65;;;2.20;;
58928;SDS011;44713;53.378;10.022;2023-06-14T07:28:46;3.63;;;2.65;;
58928;SDS011;44713;53.378;10.022;2023-06-14T07:31:12;5.18;;;2.65;;
58928;SDS011;44713;53.378;10.022;2023-06-14T07:33:38;3.70;;;2.80;;
58928;SDS011;44713;53.378;10.022;2023-06-14T07:36:04;3.75;;;2.40;;
58928;SDS011;44713;53.378;10.022;2023-06-14T07:38:30;7.07;;;2.55;;
58928;SDS011;44713;53.378;10.022;2023-06-14T07:40:55;3.65;;;2.60;;
58928;SDS011;44713;53.378;10.022;2023-06-14T07:43:21;5.28;;;3.40;;
58928;SDS011;44713;53.378;10.022;2023-06-14T07:45:46;4.80;;;2.75;;
58928;SDS011;44713;53.378;10.022;2023-06-14T07:48:12;5.57;;;2.67;;
58928;SDS011;44713;53.378;10.022;2023-06-14T07:50:37;4.32;;;2.30;;
58928;SDS011;44713;53.378;10.022;2023-06-14T07:53:02;2.88;;;2.17;;
58928;SDS011;44713;53.378;10.022;2023-06-14T07:55:28;5.30;;;2.78;;
58928;SDS011;44713;53.378;10.022;2023-06-14T07:57:53;2.60;;;1.92;;
58928;SDS011;44713;53.378;10.022;2023-06-14T08:00:19;4.82;;;2.50;;
58928;SDS011;44713;53.378;10.022;2023-06-14T08:02:45;3.97;;;2.30;;
58928;SDS011;44713;53.378;10.022;2023-06-14T08:05:11;4.22;;;1.90;;
58928;SDS011;44713;53.378;10.022;2023-06-14T08:07:37;3.55;;;2.33;;
58928;SDS011;44713;53.378;10.022;2023-06-14T08:10:04;7.10;;;2.67;;
58928;SDS011;44713;53.378;10.022;2023-06-14T08:12:31;3.78;;;2.13;;
58928;SDS011;44713;53.378;10.022;2023-06-14T08:14:57;3.20;;;2.75;;
58928;SDS011;44713;53.378;10.022;2023-06-14T08:17:22;7.53;;;2.60;;
58928;SDS011;44713;53.378;10.022;2023-06-14T08:19:47;8.60;;;2.30;;
58928;SDS011;44713;53.378;10.022;2023-06-14T08:22:13;7.32;;;2.70;;
58928;SDS011;44713;53.378;10.022;2023-06-14T08:24:38;4.22;;;2.33;;
58928;SDS011;44713;53.378;10.022;2023-06-14T08:27:04;3.50;;;2.47;;
58928;SDS011;44713;53.378;10.022;2023-06-14T08:29:31;3.67;;;2.70;;
58928;SDS011;44713;53.378;10.022;2023-06-14T08:31:56;5.25;;;2.63;;
58928;SDS011;44713;53.378;10.022;2023-06-14T08:34:22;6.13;;;2.40;;
58928;SDS011;44713;53.378;10.022;2023-06-14T08:36:54;4.78;;;2.38;;
58928;SDS011;44713;53.378;10.022;2023-06-14T08:39:40;4.40;;;2.28;;
58928;SDS011;44713;53.378;10.022;2023-06-14T08:42:05;2.85;;;2.28;;
58928;SDS011;44713;53.378;10.022;2023-06-14T08:44:32;4.15;;;2.50;;
58928;SDS011;44713;53.378;10.022;2023-06-14T08:46:59;3.83;;;2.25;;
58928;SDS011;44713;53.378;10.022;2023-06-14T08:49:24;4.53;;;2.42;;
58928;SDS011;44713;53.378;10.022;2023-06-14T08:51:52;7.45;;;2.65;;
58928;SDS011;44713;53.378;10.022;2023-06-14T08:54:27;10.82;;;2.60;;
58928;SDS011;44713;53.378;10.022;2023-06-14T08:56:55;4.28;;;2.70;;
58928;SDS011;44713;53.378;10.022;2023-06-14T08:59:25;4.47;;;2.83;;
58928;SDS011;44713;53.378;10.022;2023-06-14T09:01:51;4.40;;;2.13;;
58928;SDS011;44713;53.378;10.022;2023-06-14T09:04:17;2.83;;;2.22;;
58928;SDS011;44713;53.378;10.022;2023-06-14T09:06:44;6.30;;;2.50;;
58928;SDS011;44713;53.378;10.022;2023-06-14T09:09:10;6.07;;;2.38;;
58928;SDS011;44713;53.378;10.022;2023-06-14T09:11:37;8.02;;;2.20;;
58928;SDS011;44713;53.378;10.022;2023-06-14T09:14:02;8.82;;;2.50;;
58928;SDS011;44713;53.378;10.022;2023-06-14T09:16:28;4.63;;;2.17;;
58928;SDS011;44713;53.378;10.022;2023-06-14T09:18:53;3.80;;;2.30;;
58928;SDS011;44713;53.378;10.022;2023-06-14T09:21:19;6.05;;;2.15;;
58928;SDS011;44713;53.378;10.022;2023-06-14T09:23:47;6.03;;;2.38;;
58928;SDS011;44713;53.378;10.022;2023-06-14T09:26:16;6.30;;;2.30;;
58928;SDS011;44713;53.378;10.022;2023-06-14T09:28:44;5.72;;;2.10;;
58928;SDS011;44713;53.378;10.022;2023-06-14T09:31:12;3.88;;;2.38;;
58928;SDS011;44713;53.378;10.022;2023-06-14T09:33:38;6.55;;;2.50;;
58928;SDS011;44713;53.378;10.022;2023-06-14T09:36:11;7.50;;;2.90;;
58928;SDS011;44713;53.378;10.022;2023-06-14T09:38:39;7.70;;;2.67;;
58928;SDS011;44713;53.378;10.022;2023-06-14T09:41:05;6.75;;;2.70;;
58928;SDS011;44713;53.378;10.022;2023-06-14T09:43:31;3.05;;;2.60;;
58928;SDS011;44713;53.378;10.022;2023-06-14T09:45:59;5.07;;;2.58;;
58928;SDS011;44713;53.378;10.022;2023-06-14T09:48:25;2.80;;;2.42;;
58928;SDS011;44713;53.378;10.022;2023-06-14T09:50:51;8.30;;;2.45;;
58928;SDS011;44713;53.378;10.022;2023-06-14T09:53:19;4.10;;;2.50;;
58928;SDS011;44713;53.378;10.022;2023-06-14T09:55:46;6.68;;;2.33;;
58928;SDS011;44713;53.378;10.022;2023-06-14T09:58:14;5.18;;;2.50;;
58928;SDS011;44713;53.378;10.022;2023-06-14T10:00:41;7.80;;;2.75;;
58928;SDS011;44713;53.378;10.022;2023-06-14T10:03:12;5.32;;;2.45;;
58928;SDS011;44713;53.378;10.022;2023-06-14T10:05:41;4.00;;;2.50;;
58928;SDS011;44713;53.378;10.022;2023-06-14T10:08:09;3.78;;;2.22;;
58928;SDS011;44713;53.378;10.022;2023-06-14T10:10:38;5.15;;;2.10;;
58928;SDS011;44713;53.378;10.022;2023-06-14T10:13:05;3.10;;;2.25;;
58928;SDS011;44713;53.378;10.022;2023-06-14T10:15:43;4.38;;;2.40;;
58928;SDS011;44713;53.378;10.022;2023-06-14T10:21:15;8.73;;;2.50;;
58928;SDS011;44713;53.378;10.022;2023-06-14T10:23:53;5.80;;;2.53;;
58928;SDS011;44713;53.378;10.022;2023-06-14T10:26:23;3.58;;;2.35;;
58928;SDS011;44713;53.378;10.022;2023-06-14T10:29:07;9.73;;;2.78;;
58928;SDS011;44713;53.378;10.022;2023-06-14T10:31:43;5.80;;;2.30;;
58928;SDS011;44713;53.378;10.022;2023-06-14T10:34:11;3.15;;;2.17;;
58928;SDS011;44713;53.378;10.022;2023-06-14T10:36:38;10.35;;;2.38;;
58928;SDS011;44713;53.378;10.022;2023-06-14T10:41:50;5.35;;;2.30;;
58928;SDS011;44713;53.378;10.022;2023-06-14T10:46:46;4.25;;;2.42;;
58928;SDS011;44713;53.378;10.022;2023-06-14T10:49:15;4.18;;;1.90;;
58928;SDS011;44713;53.378;10.022;2023-06-14T10:51:44;9.98;;;2.42;;
58928;SDS011;44713;53.378;10.022;2023-06-14T10:54:14;4.45;;;2.53;;
58928;SDS011;44713;53.378;10.022;2023-06-14T10:56:49;6.88;;;2.40;;
58928;SDS011;44713;53.378;10.022;2023-06-14T10:59:16;7.97;;;2.88;;
58928;SDS011;44713;53.378;10.022;2023-06-14T11:04:17;7.38;;;2.45;;
58928;SDS011;44713;53.378;10.022;2023-06-14T11:06:49;7.30;;;2.17;;
58928;SDS011;44713;53.378;10.022;2023-06-14T11:12:07;4.20;;;2.15;;
58928;SDS011;44713;53.378;10.022;2023-06-14T11:14:35;3.15;;;2.40;;
58928;SDS011;44713;53.378;10.022;2023-06-14T11:17:01;6.13;;;2.53;;
58928;SDS011;44713;53.378;10.022;2023-06-14T11:19:26;4.40;;;2.53;;
58928;SDS011;44713;53.378;10.022;2023-06-14T11:21:53;12.18;;;2.70;;
58928;SDS011;44713;53.378;10.022;2023-06-14T11:24:19;5.85;;;2.42;;
58928;SDS011;44713;53.378;10.022;2023-06-14T11:26:46;3.95;;;2.75;;
58928;SDS011;44713;53.378;10.022;2023-06-14T11:29:14;8.43;;;2.17;;
58928;SDS011;44713;53.378;10.022;2023-06-14T11:31:43;3.72;;;2.20;;
58928;SDS011;44713;53.378;10.022;2023-06-14T11:34:11;6.22;;;2.58;;
58928;SDS011;44713;53.378;10.022;2023-06-14T11:36:37;5.63;;;2.20;;
58928;SDS011;44713;53.378;10.022;2023-06-14T11:39:03;5.93;;;2.45;;
58928;SDS011;44713;53.378;10.022;2023-06-14T11:41:37;3.85;;;2.30;;
58928;SDS011;44713;53.378;10.022;2023-06-14T11:44:07;6.93;;;2.45;;
58928;SDS011;44713;53.378;10.022;2023-06-14T11:46:33;6.00;;;2.63;;
58928;SDS011;44713;53.378;10.022;2023-06-14T11:48:59;5.93;;;2.53;;
58928;SDS011;44713;53.378;10.022;2023-06-14T11:51:28;6.22;;;2.88;;
58928;SDS011;44713;53.378;10.022;2023-06-14T11:53:54;5.10;;;2.67;;
58928;SDS011;44713;53.378;10.022;2023-06-14T11:56:20;5.40;;;2.45;;
58928;SDS011;44713;53.378;10.022;2023-06-14T11:58:45;6.97;;;2.33;;
58928;SDS011;44713;53.378;10.022;2023-06-14T12:01:16;7.43;;;2.63;;
58928;SDS011;44713;53.378;10.022;2023-06-14T12:03:47;11.68;;;2.80;;
58928;SDS011;44713;53.378;10.022;2023-06-14T12:06:13;4.45;;;2.30;;
58928;SDS011;44713;53.378;10.022;2023-06-14T12:08:38;3.40;;;2.40;;
58928;SDS011;44713;53.378;10.022;2023-06-14T12:11:11;7.32;;;2.80;;
58928;SDS011;44713;53.378;10.022;2023-06-14T12:13:40;8.02;;;2.50;;
58928;SDS011;44713;53.378;10.022;2023-06-14T12:16:07;5.10;;;2.42;;
58928;SDS011;44713;53.378;10.022;2023-06-14T12:18:37;2.95;;;2.60;;
58928;SDS011;44713;53.378;10.022;2023-06-14T12:21:07;6.40;;;2.63;;
58928;SDS011;44713;53.378;10.022;2023-06-14T12:23:46;3.70;;;2.58;;
58928;SDS011;44713;53.378;10.022;2023-06-14T12:26:16;9.93;;;2.35;;
58928;SDS011;44713;53.378;10.022;2023-06-14T12:28:42;8.73;;;2.40;;
58928;SDS011;44713;53.378;10.022;2023-06-14T12:31:11;5.78;;;2.60;;
58928;SDS011;44713;53.378;10.022;2023-06-14T12:33:37;4.57;;;2.60;;
58928;SDS011;44713;53.378;10.022;2023-06-14T12:36:03;5.57;;;2.58;;
58928;SDS011;44713;53.378;10.022;2023-06-14T12:38:30;8.45;;;2.40;;
58928;SDS011;44713;53.378;10.022;2023-06-14T12:40:55;8.18;;;2.13;;
58928;SDS011;44713;53.378;10.022;2023-06-14T12:43:20;4.32;;;2.33;;
58928;SDS011;44713;53.378;10.022;2023-06-14T12:45:46;4.93;;;2.50;;
58928;SDS011;44713;53.378;10.022;2023-06-14T12:48:11;6.18;;;2.70;;
58928;SDS011;44713;53.378;10.022;2023-06-14T12:50:37;5.30;;;2.60;;
58928;SDS011;44713;53.378;10.022;2023-06-14T12:53:02;6.22;;;2.50;;
58928;SDS011;44713;53.378;10.022;2023-06-14T12:55:27;3.92;;;2.25;;
58928;SDS011;44713;53.378;10.022;2023-06-14T12:57:52;4.40;;;2.28;;
58928;SDS011;44713;53.378;10.022;2023-06-14T13:00:18;4.25;;;2.30;;
58928;SDS011;44713;53.378;10.022;2023-06-14T13:02:45;4.13;;;2.45;;
58928;SDS011;44713;53.378;10.022;2023-06-14T13:05:10;7.00;;;2.25;;
58928;SDS011;44713;53.378;10.022;2023-06-14T13:07:36;8.05;;;2.53;;
58928;SDS011;44713;53.378;10.022;2023-06-14T13:10:01;3.63;;;2.13;;
58928;SDS011;44713;53.378;10.022;2023-06-14T13:12:27;3.47;;;2.58;;
58928;SDS011;44713;53.378;10.022;2023-06-14T13:14:52;5.70;;;2.60;;
58928;SDS011;44713;53.378;10.022;2023-06-14T13:17:18;5.32;;;2.70;;
58928;SDS011;44713;53.378;10.022;2023-06-14T13:19:43;5.45;;;2.80;;
58928;SDS011;44713;53.378;10.022;2023-06-14T13:22:08;5.70;;;2.53;;
58928;SDS011;44713;53.378;10.022;2023-06-14T13:24:34;7.28;;;2.92;;
58928;SDS011;44713;53.378;10.022;2023-06-14T13:26:59;6.60;;;2.92;;
58928;SDS011;44713;53.378;10.022;2023-06-14T13:29:25;5.22;;;2.58;;
58928;SDS011;44713;53.378;10.022;2023-06-14T13:31:51;4.15;;;2.28;;
58928;SDS011;44713;53.378;10.022;2023-06-14T13:34:17;6.68;;;2.38;;
58928;SDS011;44713;53.378;10.022;2023-06-14T13:36:42;5.70;;;2.65;;
58928;SDS011;44713;53.378;10.022;2023-06-14T13:39:08;9.60;;;2.60;;
58928;SDS011;44713;53.378;10.022;2023-06-14T13:41:33;6.18;;;2.35;;
58928;SDS011;44713;53.378;10.022;2023-06-14T13:44:00;3.28;;;2.30;;
58928;SDS011;44713;53.378;10.022;2023-06-14T13:46:26;4.30;;;2.15;;
58928;SDS011;44713;53.378;10.022;2023-06-14T13:48:51;3.90;;;2.17;;
58928;SDS011;44713;53.378;10.022;2023-06-14T13:51:17;5.88;;;2.45;;
58928;SDS011;44713;53.378;10.022;2023-06-14T13:53:50;3.42;;;2.50;;
58928;SDS011;44713;53.378;10.022;2023-06-14T13:56:16;3.80;;;2.25;;
58928;SDS011;44713;53.378;10.022;2023-06-14T13:58:42;5.40;;;2.30;;
58928;SDS011;44713;53.378;10.022;2023-06-14T14:01:08;2.67;;;2.08;;
58928;SDS011;44713;53.378;10.022;2023-06-14T14:03:33;3.67;;;2.40;;
58928;SDS011;44713;53.378;10.022;2023-06-14T14:06:00;3.92;;;2.17;;
58928;SDS011;44713;53.378;10.022;2023-06-14T14:08:29;4.30;;;2.53;;
58928;SDS011;44713;53.378;10.022;2023-06-14T14:10:54;7.97;;;2.38;;
58928;SDS011;44713;53.378;10.022;2023-06-14T14:13:21;5.30;;;2.42;;
58928;SDS011;44713;53.378;10.022;2023-06-14T14:15:46;8.20;;;2.38;;
58928;SDS011;44713;53.378;10.022;2023-06-14T14:18:12;5.82;;;2.45;;
58928;SDS011;44713;53.378;10.022;2023-06-14T14:20:37;4.85;;;2.20;;
58928;SDS011;44713;53.378;10.022;2023-06-14T14:23:02;4.32;;;2.30;;
58928;SDS011;44713;53.378;10.022;2023-06-14T14:25:28;5.32;;;2.72;;
58928;SDS011;44713;53.378;10.022;2023-06-14T14:27:53;6.30;;;2.70;;
58928;SDS011;44713;53.378;10.022;2023-06-14T14:30:19;5.50;;;2.55;;
58928;SDS011;44713;53.378;10.022;2023-06-14T14:32:48;7.03;;;2.53;;
58928;SDS011;44713;53.378;10.022;2023-06-14T14:35:14;5.10;;;2.20;;
58928;SDS011;44713;53.378;10.022;2023-06-14T14:37:40;4.97;;;1.85;;
58928;SDS011;44713;53.378;10.022;2023-06-14T14:40:05;8.85;;;2.40;;
58928;SDS011;44713;53.378;10.022;2023-06-14T14:42:31;7.80;;;2.60;;
58928;SDS011;44713;53.378;10.022;2023-06-14T14:44:57;6.13;;;2.65;;
58928;SDS011;44713;53.378;10.022;2023-06-14T14:47:22;3.25;;;2.28;;
58928;SDS011;44713;53.378;10.022;2023-06-14T14:49:47;9.80;;;2.63;;